sensor_id;sensor_type;location;lat;lon;timestamp;pressure;altitude;pressure_sealevel;temperature;humidity
41513;BME280;27244;59.940;30.280;2023-06-19T00:00:33;102019.06;;;23.57;38.34
41513;BME280;27244;59.940;30.280;2023-06-19T00:03:00;102011.84;;;23.52;38.31
41513;BME280;27244;59.940;30.280;2023-06-19T00:05:28;102016.22;;;23.61;38.40
41513;BME280;27244;59.940;30.280;2023-06-19T00:07:57;102024.66;;;23.64;38.43
41513;BME280;27244;59.940;30.280;2023-06-19T00:10:24;102006.66;;;23.51;38.26
41513;BME280;27244;59.940;30.280;2023-06-19T00:12:51;102017.41;;;23.63;38.40
41513;BME280;27244;59.940;30.280;2023-06-19T00:15:18;102021.84;;;23.61;38.24
41513;BME280;27244;59.940;30.280;2023-06-19T00:17:45;102011.00;;;23.59;38.49
41513;BME280;27244;59.940;30.280;2023-06-19T00:20:12;102005.34;;;23.59;38.30
41513;BME280;27244;59.940;30.280;2023-06-19T00:22:40;102010.59;;;23.61;38.22
41513;BME280;27244;59.940;30.280;2023-06-19T00:25:08;101996.97;;;23.52;38.36
41513;BME280;27244;59.940;30.280;2023-06-19T00:27:36;102006.56;;;23.62;38.28
41513;BME280;27244;59.940;30.280;2023-06-19T00:30:05;102003.75;;;23.62;38.54
41513;BME280;27244;59.940;30.280;2023-06-19T00:32:32;102004.56;;;23.59;38.37
41513;BME280;27244;59.940;30.280;2023-06-19T00:35:12;102000.94;;;23.62;38.51
41513;BME280;27244;59.940;30.280;2023-06-19T00:37:39;102008.56;;;23.61;38.67
41513;BME280;27244;59.940;30.280;2023-06-19T00:40:15;102011.41;;;23.61;38.66
41513;BME280;27244;59.940;30.280;2023-06-19T00:42:43;102005.75;;;23.61;38.61
41513;BME280;27244;59.940;30.280;2023-06-19T00:45:10;102011.41;;;23.61;38.60
41513;BME280;27244;59.940;30.280;2023-06-19T00:47:37;101998.13;;;23.58;38.58
41513;BME280;27244;59.940;30.280;2023-06-19T00:50:06;101997.34;;;23.58;38.57
41513;BME280;27244;59.940;30.280;2023-06-19T00:52:34;102010.59;;;23.61;38.67
41513;BME280;27244;59.940;30.280;2023-06-19T00:55:01;102003.78;;;23.58;38.68
41513;BME280;27244;59.940;30.280;2023-06-19T00:57:35;101979.28;;;23.48;38.30
41513;BME280;27244;59.940;30.280;2023-06-19T01:00:06;102004.97;;;23.61;38.34
41513;BME280;27244;59.940;30.280;2023-06-19T01:02:33;101998.31;;;23.85;38.10
41513;BME280;27244;59.940;30.280;2023-06-19T01:05:01;101974.88;;;23.47;38.49
41513;BME280;27244;59.940;30.280;2023-06-19T01:07:37;102001.31;;;23.64;38.48
41513;BME280;27244;59.940;30.280;2023-06-19T01:10:14;101991.72;;;23.54;38.64
41513;BME280;27244;59.940;30.280;2023-06-19T01:12:49;101977.28;;;23.48;38.77
41513;BME280;27244;59.940;30.280;2023-06-19T01:15:19;101991.75;;;23.50;38.60
41513;BME280;27244;59.940;30.280;2023-06-19T01:17:54;101974.09;;;23.43;38.71
41513;BME280;27244;59.940;30.280;2023-06-19T01:20:22;101982.13;;;23.41;38.72
41513;BME280;27244;59.940;30.280;2023-06-19T01:22:53;102008.94;;;23.63;38.95
41513;BME280;27244;59.940;30.280;2023-06-19T01:25:22;101987.69;;;23.51;38.85
41513;BME280;27244;59.940;30.280;2023-06-19T01:27:50;101974.09;;;23.43;38.94
41513;BME280;27244;59.940;30.280;2023-06-19T01:30:18;101988.13;;;23.50;38.86
41513;BME280;27244;59.940;30.280;2023-06-19T01:32:52;101984.50;;;23.53;38.72
41513;BME280;27244;59.940;30.280;2023-06-19T01:35:26;101972.47;;;23.45;38.78
41513;BME280;27244;59.940;30.280;2023-06-19T01:37:56;101997.34;;;23.58;39.04
41513;BME280;27244;59.940;30.280;2023-06-19T01:40:25;101996.09;;;23.59;38.94
41513;BME280;27244;59.940;30.280;2023-06-19T01:42:54;101986.09;;;23.54;39.05
41513;BME280;27244;59.940;30.280;2023-06-19T01:45:22;101979.66;;;23.53;39.13
41513;BME280;27244;59.940;30.280;2023-06-19T01:47:49;101978.84;;;23.53;38.93
41513;BME280;27244;59.940;30.280;2023-06-19T01:50:16;101976.88;;;23.50;39.07
41513;BME280;27244;59.940;30.280;2023-06-19T01:52:45;101990.47;;;23.59;39.17
41513;BME280;27244;59.940;30.280;2023-06-19T01:55:14;101995.69;;;23.60;39.00
41513;BME280;27244;59.940;30.280;2023-06-19T01:57:44;101962.84;;;23.39;39.11
41513;BME280;27244;59.940;30.280;2023-06-19T02:00:19;101962.41;;;23.41;39.17
41513;BME280;27244;59.940;30.280;2023-06-19T02:02:46;101975.72;;;23.44;39.23
41513;BME280;27244;59.940;30.280;2023-06-19T02:05:15;101979.28;;;23.48;39.34
41513;BME280;27244;59.940;30.280;2023-06-19T02:07:54;101988.88;;;23.58;39.99
41513;BME280;27244;59.940;30.280;2023-06-19T02:10:23;101988.91;;;23.54;40.63
41513;BME280;27244;59.940;30.280;2023-06-19T02:12:50;101992.88;;;23.60;41.25
41513;BME280;27244;59.940;30.280;2023-06-19T02:15:24;101962.00;;;23.46;41.41
41513;BME280;27244;59.940;30.280;2023-06-19T02:17:57;101987.25;;;23.60;41.68
41513;BME280;27244;59.940;30.280;2023-06-19T02:20:28;101976.84;;;23.53;42.37
41513;BME280;27244;59.940;30.280;2023-06-19T02:23:07;101971.63;;;23.48;42.03
41513;BME280;27244;59.940;30.280;2023-06-19T02:25:43;101965.59;;;23.50;42.58
41513;BME280;27244;59.940;30.280;2023-06-19T02:28:17;101995.31;;;23.62;43.51
41513;BME280;27244;59.940;30.280;2023-06-19T02:30:46;101982.78;;;23.63;43.81
41513;BME280;27244;59.940;30.280;2023-06-19T02:33:14;101993.25;;;23.66;43.63
41513;BME280;27244;59.940;30.280;2023-06-19T02:35:41;101998.44;;;23.71;43.90
41513;BME280;27244;59.940;30.280;2023-06-19T02:38:10;102001.69;;;23.69;43.54
41513;BME280;27244;59.940;30.280;2023-06-19T02:40:42;101977.63;;;23.58;43.44
41513;BME280;27244;59.940;30.280;2023-06-19T02:43:10;101982.44;;;23.57;42.84
41513;BME280;27244;59.940;30.280;2023-06-19T02:45:37;101985.22;;;23.64;43.12
41513;BME280;27244;59.940;30.280;2023-06-19T02:48:07;101972.00;;;23.54;43.41
41513;BME280;27244;59.940;30.280;2023-06-19T02:50:34;101989.94;;;23.74;43.66
41513;BME280;27244;59.940;30.280;2023-06-19T02:53:01;101968.75;;;23.59;43.86
41513;BME280;27244;59.940;30.280;2023-06-19T02:55:28;101971.13;;;23.64;44.30
41513;BME280;27244;59.940;30.280;2023-06-19T02:57:57;101952.31;;;23.54;44.21
41513;BME280;27244;59.940;30.280;2023-06-19T03:00:25;101963.03;;;23.66;44.13
41513;BME280;27244;59.940;30.280;2023-06-19T03:02:57;101949.50;;;23.50;43.70
41513;BME280;27244;59.940;30.280;2023-06-19T03:05:24;101982.34;;;23.71;43.46
41513;BME280;27244;59.940;30.280;2023-06-19T03:07:53;101949.06;;;23.52;43.25
41513;BME280;27244;59.940;30.280;2023-06-19T03:10:20;101966.69;;;23.63;43.26
41513;BME280;27244;59.940;30.280;2023-06-19T03:12:47;101963.53;;;23.58;43.16
41513;BME280;27244;59.940;30.280;2023-06-19T03:15:16;101979.91;;;23.70;43.14
41513;BME280;27244;59.940;30.280;2023-06-19T03:17:47;101980.72;;;23.70;42.74
41513;BME280;27244;59.940;30.280;2023-06-19T03:20:14;101977.53;;;23.68;42.47
41513;BME280;27244;59.940;30.280;2023-06-19T03:22:49;101965.13;;;23.62;42.48
41513;BME280;27244;59.940;30.280;2023-06-19T03:25:17;101979.91;;;23.70;42.34
41513;BME280;27244;59.940;30.280;2023-06-19T03:27:47;101971.06;;;23.71;42.30
41513;BME280;27244;59.940;30.280;2023-06-19T03:30:15;101982.34;;;23.71;42.60
41513;BME280;27244;59.940;30.280;2023-06-19T03:32:46;101973.06;;;23.71;42.61
41513;BME280;27244;59.940;30.280;2023-06-19T03:35:29;101951.88;;;23.56;42.44
41513;BME280;27244;59.940;30.280;2023-06-19T03:37:57;101953.84;;;23.59;42.48
41513;BME280;27244;59.940;30.280;2023-06-19T03:40:24;101973.03;;;23.74;42.19
41513;BME280;27244;59.940;30.280;2023-06-19T03:42:51;101965.88;;;23.66;42.16
41513;BME280;27244;59.940;30.280;2023-06-19T03:45:20;101970.22;;;23.74;42.26
41513;BME280;27244;59.940;30.280;2023-06-19T03:47:47;101960.22;;;23.66;42.29
41513;BME280;27244;59.940;30.280;2023-06-19T03:50:15;101964.25;;;23.69;42.42
41513;BME280;27244;59.940;30.280;2023-06-19T03:52:42;101947.06;;;23.52;42.24
41513;BME280;27244;59.940;30.280;2023-06-19T03:55:09;101971.53;;;23.63;41.94
41513;BME280;27244;59.940;30.280;2023-06-19T03:57:36;101970.31;;;23.64;41.92
41513;BME280;27244;59.940;30.280;2023-06-19T04:00:05;101962.31;;;23.62;41.89
41513;BME280;27244;59.940;30.280;2023-06-19T04:02:39;101976.31;;;23.69;41.90
41513;BME280;27244;59.940;30.280;2023-06-19T04:05:06;101962.69;;;23.61;42.10
41513;BME280;27244;59.940;30.280;2023-06-19T04:07:34;101965.88;;;23.63;41.81
41513;BME280;27244;59.940;30.280;2023-06-19T04:10:02;101938.25;;;23.50;41.78
41513;BME280;27244;59.940;30.280;2023-06-19T04:12:31;101968.66;;;23.70;41.99
41513;BME280;27244;59.940;30.280;2023-06-19T04:14:58;101950.63;;;23.60;41.97
41513;BME280;27244;59.940;30.280;2023-06-19T04:17:25;101954.22;;;23.64;41.88
41513;BME280;27244;59.940;30.280;2023-06-19T04:19:54;101938.19;;;23.58;41.72
41513;BME280;27244;59.940;30.280;2023-06-19T04:22:21;101968.22;;;23.75;41.99
41513;BME280;27244;59.940;30.280;2023-06-19T04:24:48;101968.66;;;23.70;41.81
41513;BME280;27244;59.940;30.280;2023-06-19T04:27:16;101935.38;;;23.58;41.87
41513;BME280;27244;59.940;30.280;2023-06-19T04:29:44;101961.00;;;23.70;41.90
41513;BME280;27244;59.940;30.280;2023-06-19T04:32:11;101957.38;;;23.70;41.77
41513;BME280;27244;59.940;30.280;2023-06-19T04:34:38;101958.19;;;23.70;41.88
41513;BME280;27244;59.940;30.280;2023-06-19T04:37:07;101961.41;;;23.72;42.01
41513;BME280;27244;59.940;30.280;2023-06-19T04:39:34;101945.00;;;23.60;42.23
41513;BME280;27244;59.940;30.280;2023-06-19T04:42:01;101927.78;;;23.51;42.01
41513;BME280;27244;59.940;30.280;2023-06-19T04:44:28;101944.63;;;23.58;41.98
41513;BME280;27244;59.940;30.280;2023-06-19T04:46:59;101925.41;;;23.46;41.94
41513;BME280;27244;59.940;30.280;2023-06-19T04:49:28;101954.22;;;23.64;41.74
41513;BME280;27244;59.940;30.280;2023-06-19T04:51:56;101950.19;;;23.65;41.61
41513;BME280;27244;59.940;30.280;2023-06-19T04:54:26;101964.63;;;23.71;41.30
41513;BME280;27244;59.940;30.280;2023-06-19T04:56:53;101950.59;;;23.64;41.47
41513;BME280;27244;59.940;30.280;2023-06-19T04:59:20;101946.19;;;23.59;41.23
41513;BME280;27244;59.940;30.280;2023-06-19T05:01:47;101960.16;;;23.73;41.28
41513;BME280;27244;59.940;30.280;2023-06-19T05:04:15;101933.78;;;23.53;41.18
41513;BME280;27244;59.940;30.280;2023-06-19T05:06:42;101939.38;;;23.60;41.30
41513;BME280;27244;59.940;30.280;2023-06-19T05:09:09;101956.59;;;23.69;41.32
41513;BME280;27244;59.940;30.280;2023-06-19T05:11:38;101931.34;;;23.55;41.70
41513;BME280;27244;59.940;30.280;2023-06-19T05:14:05;101932.59;;;23.54;41.76
41513;BME280;27244;59.940;30.280;2023-06-19T05:16:33;101916.91;;;23.49;42.05
41513;BME280;27244;59.940;30.280;2023-06-19T05:19:01;101922.53;;;23.53;41.90
41513;BME280;27244;59.940;30.280;2023-06-19T05:21:28;101948.91;;;23.73;41.88
41513;BME280;27244;59.940;30.280;2023-06-19T05:23:55;101946.88;;;23.74;41.88
41513;BME280;27244;59.940;30.280;2023-06-19T05:26:22;101919.31;;;23.55;41.84
41513;BME280;27244;59.940;30.280;2023-06-19T05:28:51;101932.91;;;23.63;41.79
41513;BME280;27244;59.940;30.280;2023-06-19T05:31:18;101954.53;;;23.73;41.71
41513;BME280;27244;59.940;30.280;2023-06-19T05:33:45;101945.31;;;23.73;41.82
41513;BME280;27244;59.940;30.280;2023-06-19T05:36:12;101928.50;;;23.62;41.74
41513;BME280;27244;59.940;30.280;2023-06-19T05:38:40;101933.28;;;23.65;41.94
41513;BME280;27244;59.940;30.280;2023-06-19T05:41:08;101942.09;;;23.71;42.03
41513;BME280;27244;59.940;30.280;2023-06-19T05:43:35;101938.88;;;23.72;42.14
41513;BME280;27244;59.940;30.280;2023-06-19T05:46:03;101920.47;;;23.57;42.14
41513;BME280;27244;59.940;30.280;2023-06-19T05:48:30;101939.66;;;23.73;41.97
41513;BME280;27244;59.940;30.280;2023-06-19T05:50:58;101902.03;;;23.49;42.18
41513;BME280;27244;59.940;30.280;2023-06-19T05:53:25;101923.63;;;23.63;41.89
41513;BME280;27244;59.940;30.280;2023-06-19T05:55:57;101939.66;;;23.73;41.92
41513;BME280;27244;59.940;30.280;2023-06-19T05:58:24;101922.88;;;23.62;42.06
41513;BME280;27244;59.940;30.280;2023-06-19T06:00:51;101948.91;;;23.73;42.13
41513;BME280;27244;59.940;30.280;2023-06-19T06:03:24;101946.84;;;23.77;41.92
41513;BME280;27244;59.940;30.280;2023-06-19T06:05:53;101945.31;;;23.73;41.97
41513;BME280;27244;59.940;30.280;2023-06-19T06:08:28;101952.50;;;23.77;42.00
41513;BME280;27244;59.940;30.280;2023-06-19T06:10:55;101940.88;;;23.72;42.36
41513;BME280;27244;59.940;30.280;2023-06-19T06:13:22;101921.25;;;23.61;41.99
41513;BME280;27244;59.940;30.280;2023-06-19T06:15:49;101927.69;;;23.62;42.05
41513;BME280;27244;59.940;30.280;2023-06-19T06:18:16;101936.13;;;23.65;42.20
41513;BME280;27244;59.940;30.280;2023-06-19T06:20:45;101921.25;;;23.61;42.13
41513;BME280;27244;59.940;30.280;2023-06-19T06:23:12;101944.47;;;23.76;42.07
41513;BME280;27244;59.940;30.280;2023-06-19T06:25:40;101917.25;;;23.55;42.18
41513;BME280;27244;59.940;30.280;2023-06-19T06:28:07;101930.44;;;23.69;42.22
41513;BME280;27244;59.940;30.280;2023-06-19T06:30:34;101935.66;;;23.70;42.09
41513;BME280;27244;59.940;30.280;2023-06-19T06:33:01;101934.88;;;23.66;42.20
41513;BME280;27244;59.940;30.280;2023-06-19T06:35:28;101942.09;;;23.71;42.11
41513;BME280;27244;59.940;30.280;2023-06-19T06:37:57;101933.28;;;23.65;42.37
41513;BME280;27244;59.940;30.280;2023-06-19T06:40:24;101926.09;;;23.61;42.26
41513;BME280;27244;59.940;30.280;2023-06-19T06:42:51;101927.22;;;23.67;42.32
41513;BME280;27244;59.940;30.280;2023-06-19T06:45:19;101940.84;;;23.75;42.07
41513;BME280;27244;59.940;30.280;2023-06-19T06:47:47;101927.25;;;23.63;42.14
41513;BME280;27244;59.940;30.280;2023-06-19T06:50:14;101925.66;;;23.66;42.26
41513;BME280;27244;59.940;30.280;2023-06-19T06:52:41;101929.94;;;23.77;42.12
41513;BME280;27244;59.940;30.280;2023-06-19T06:55:09;101932.34;;;23.79;42.17
41513;BME280;27244;59.940;30.280;2023-06-19T06:57:36;101917.56;;;23.68;41.92
41513;BME280;27244;59.940;30.280;2023-06-19T07:00:05;101929.09;;;23.80;42.19
41513;BME280;27244;59.940;30.280;2023-06-19T07:02:35;101936.53;;;24.05;41.63
41513;BME280;27244;59.940;30.280;2023-06-19T07:05:02;101929.50;;;23.82;42.03
41513;BME280;27244;59.940;30.280;2023-06-19T07:07:31;101931.94;;;23.80;42.17
41513;BME280;27244;59.940;30.280;2023-06-19T07:09:57;101887.88;;;23.56;42.00
41513;BME280;27244;59.940;30.280;2023-06-19T07:12:28;101923.09;;;23.78;42.17
41513;BME280;27244;59.940;30.280;2023-06-19T07:14:55;101924.31;;;23.77;42.28
41513;BME280;27244;59.940;30.280;2023-06-19T07:17:22;101917.91;;;23.73;42.13
41513;BME280;27244;59.940;30.280;2023-06-19T07:19:50;101923.09;;;23.78;42.17
41513;BME280;27244;59.940;30.280;2023-06-19T07:22:17;101917.13;;;23.73;42.20
41513;BME280;27244;59.940;30.280;2023-06-19T07:24:44;101907.47;;;23.70;42.24
41513;BME280;27244;59.940;30.280;2023-06-19T07:27:11;101889.06;;;23.59;42.43
41513;BME280;27244;59.940;30.280;2023-06-19T07:29:39;101880.66;;;23.55;42.29
41513;BME280;27244;59.940;30.280;2023-06-19T07:32:07;101901.06;;;23.66;42.27
41513;BME280;27244;59.940;30.280;2023-06-19T07:34:35;101918.69;;;23.77;42.25
41513;BME280;27244;59.940;30.280;2023-06-19T07:37:03;101912.66;;;23.75;42.24
41513;BME280;27244;59.940;30.280;2023-06-19T07:39:33;101895.41;;;23.70;42.24
41513;BME280;27244;59.940;30.280;2023-06-19T07:42:00;101915.03;;;23.80;42.80
41513;BME280;27244;59.940;30.280;2023-06-19T07:44:27;101897.00;;;23.71;42.74
41513;BME280;27244;59.940;30.280;2023-06-19T07:46:56;101882.66;;;23.58;42.89
41513;BME280;27244;59.940;30.280;2023-06-19T07:49:23;101918.63;;;23.81;43.10
41513;BME280;27244;59.940;30.280;2023-06-19T07:51:50;101897.84;;;23.68;42.71
41513;BME280;27244;59.940;30.280;2023-06-19T07:54:17;101901.81;;;23.74;43.10
41513;BME280;27244;59.940;30.280;2023-06-19T07:56:44;101871.00;;;23.56;42.97
41513;BME280;27244;59.940;30.280;2023-06-19T07:59:11;101918.25;;;23.82;42.75
41513;BME280;27244;59.940;30.280;2023-06-19T08:01:39;101905.06;;;23.72;42.60
41513;BME280;27244;59.940;30.280;2023-06-19T08:04:08;101913.81;;;23.81;42.49
41513;BME280;27244;59.940;30.280;2023-06-19T08:06:35;101898.63;;;23.72;42.33
41513;BME280;27244;59.940;30.280;2023-06-19T08:09:02;101888.66;;;23.60;41.92
41513;BME280;27244;59.940;30.280;2023-06-19T08:11:29;101894.66;;;23.66;41.92
41513;BME280;27244;59.940;30.280;2023-06-19T08:13:56;101885.44;;;23.62;41.76
41513;BME280;27244;59.940;30.280;2023-06-19T08:16:26;101884.63;;;23.61;41.20
41513;BME280;27244;59.940;30.280;2023-06-19T08:18:53;101905.78;;;23.80;41.06
41513;BME280;27244;59.940;30.280;2023-06-19T08:21:22;101879.38;;;23.63;40.84
41513;BME280;27244;59.940;30.280;2023-06-19T08:23:49;101875.41;;;23.57;40.53
41513;BME280;27244;59.940;30.280;2023-06-19T08:26:16;101886.63;;;23.64;40.41
41513;BME280;27244;59.940;30.280;2023-06-19T08:28:43;101905.81;;;23.76;40.37
41513;BME280;27244;59.940;30.280;2023-06-19T08:31:10;101892.22;;;23.68;40.29
41513;BME280;27244;59.940;30.280;2023-06-19T08:33:38;101864.56;;;23.56;40.34
41513;BME280;27244;59.940;30.280;2023-06-19T08:36:05;101895.38;;;23.73;40.04
41513;BME280;27244;59.940;30.280;2023-06-19T08:38:33;101892.19;;;23.71;39.99
41513;BME280;27244;59.940;30.280;2023-06-19T08:41:03;101866.53;;;23.62;40.07
41513;BME280;27244;59.940;30.280;2023-06-19T08:43:30;101894.63;;;23.69;40.01
41513;BME280;27244;59.940;30.280;2023-06-19T08:46:09;101876.13;;;23.68;40.12
41513;BME280;27244;59.940;30.280;2023-06-19T08:48:36;101898.63;;;23.72;39.94
41513;BME280;27244;59.940;30.280;2023-06-19T08:51:04;101905.06;;;23.72;39.81
41513;BME280;27244;59.940;30.280;2023-06-19T08:53:34;101879.38;;;23.63;39.66
41513;BME280;27244;59.940;30.280;2023-06-19T08:56:04;101870.63;;;23.54;39.77
41513;BME280;27244;59.940;30.280;2023-06-19T08:58:32;101882.56;;;23.69;39.75
41513;BME280;27244;59.940;30.280;2023-06-19T09:00:59;101887.38;;;23.68;39.49
41513;BME280;27244;59.940;30.280;2023-06-19T09:03:26;101888.97;;;23.73;39.16
41513;BME280;27244;59.940;30.280;2023-06-19T09:05:53;101862.16;;;23.54;39.57
41513;BME280;27244;59.940;30.280;2023-06-19T09:08:22;101870.97;;;23.60;39.43
41513;BME280;27244;59.940;30.280;2023-06-19T09:10:58;101854.53;;;23.55;39.46
41513;BME280;27244;59.940;30.280;2023-06-19T09:13:26;101857.72;;;23.57;39.30
41513;BME280;27244;59.940;30.280;2023-06-19T09:15:59;101855.69;;;23.57;39.13
41513;BME280;27244;59.940;30.280;2023-06-19T09:18:28;101864.16;;;23.57;39.34
41513;BME280;27244;59.940;30.280;2023-06-19T09:20:56;101870.56;;;23.61;39.48
41513;BME280;27244;59.940;30.280;2023-06-19T09:23:24;101874.50;;;23.67;39.38
41513;BME280;27244;59.940;30.280;2023-06-19T09:25:54;101875.66;;;23.73;39.50
41513;BME280;27244;59.940;30.280;2023-06-19T09:28:24;101840.84;;;23.53;39.57
41513;BME280;27244;59.940;30.280;2023-06-19T09:30:54;101863.69;;;23.66;39.58
41513;BME280;27244;59.940;30.280;2023-06-19T09:33:22;101858.81;;;23.66;39.48
41513;BME280;27244;59.940;30.280;2023-06-19T09:35:50;101866.81;;;23.71;39.43
41513;BME280;27244;59.940;30.280;2023-06-19T09:38:17;101871.22;;;23.76;39.31
41513;BME280;27244;59.940;30.280;2023-06-19T09:40:46;101837.59;;;23.58;39.35
41513;BME280;27244;59.940;30.280;2023-06-19T09:43:17;101847.94;;;23.68;39.11
41513;BME280;27244;59.940;30.280;2023-06-19T09:45:48;101829.13;;;23.58;39.02
41513;BME280;27244;59.940;30.280;2023-06-19T09:48:18;101861.69;;;24.00;39.03
41513;BME280;27244;59.940;30.280;2023-06-19T09:50:51;101826.28;;;23.62;39.15
41513;BME280;27244;59.940;30.280;2023-06-19T09:53:21;101818.31;;;23.53;39.24
41513;BME280;27244;59.940;30.280;2023-06-19T09:55:49;101834.69;;;23.65;39.49
41513;BME280;27244;59.940;30.280;2023-06-19T09:58:18;101833.13;;;23.61;39.46
41513;BME280;27244;59.940;30.280;2023-06-19T10:00:47;101855.56;;;23.71;39.54
41513;BME280;27244;59.940;30.280;2023-06-19T10:03:16;101847.94;;;23.68;39.66
41513;BME280;27244;59.940;30.280;2023-06-19T10:05:43;101859.50;;;23.77;39.58
41513;BME280;27244;59.940;30.280;2023-06-19T10:08:12;101834.75;;;23.62;39.54
41513;BME280;27244;59.940;30.280;2023-06-19T10:10:46;101833.47;;;23.66;39.66
41513;BME280;27244;59.940;30.280;2023-06-19T10:13:14;101850.25;;;23.77;39.77
41513;BME280;27244;59.940;30.280;2023-06-19T10:15:42;101813.50;;;23.53;39.75
41513;BME280;27244;59.940;30.280;2023-06-19T10:18:15;101819.38;;;23.66;39.79
41513;BME280;27244;59.940;30.280;2023-06-19T10:20:46;101811.84;;;23.56;39.87
41513;BME280;27244;59.940;30.280;2023-06-19T10:23:15;101843.41;;;23.78;39.90
41513;BME280;27244;59.940;30.280;2023-06-19T10:25:45;101831.00;;;23.72;40.04
41513;BME280;27244;59.940;30.280;2023-06-19T10:28:16;101824.56;;;23.71;39.83
41513;BME280;27244;59.940;30.280;2023-06-19T10:30:44;101806.97;;;23.60;39.84
41513;BME280;27244;59.940;30.280;2023-06-19T10:33:11;101813.38;;;23.64;39.75
41513;BME280;27244;59.940;30.280;2023-06-19T10:35:40;101837.72;;;23.81;39.90
41513;BME280;27244;59.940;30.280;2023-06-19T10:38:08;101799.38;;;23.57;39.81
41513;BME280;27244;59.940;30.280;2023-06-19T10:40:37;101800.50;;;23.63;42.47
41513;BME280;27244;59.940;30.280;2023-06-19T10:43:04;101822.47;;;23.79;42.46
41513;BME280;27244;59.940;30.280;2023-06-19T10:45:32;101783.59;;;23.63;42.06
41513;BME280;27244;59.940;30.280;2023-06-19T10:48:01;101810.41;;;23.78;42.27
41513;BME280;27244;59.940;30.280;2023-06-19T10:50:29;101795.59;;;23.71;42.04
41513;BME280;27244;59.940;30.280;2023-06-19T10:53:00;101785.16;;;23.68;41.86
41513;BME280;27244;59.940;30.280;2023-06-19T10:55:27;101809.66;;;24.08;41.22
41513;BME280;27244;59.940;30.280;2023-06-19T10:57:54;101804.31;;;23.83;41.52
41513;BME280;27244;59.940;30.280;2023-06-19T11:00:26;101783.91;;;23.72;41.65
41513;BME280;27244;59.940;30.280;2023-06-19T11:02:54;101795.59;;;23.71;41.94
41513;BME280;27244;59.940;30.280;2023-06-19T11:05:22;101775.59;;;23.62;41.75
41513;BME280;27244;59.940;30.280;2023-06-19T11:07:54;101787.09;;;23.74;41.81
41513;BME280;27244;59.940;30.280;2023-06-19T11:10:24;101768.31;;;23.64;41.40
41513;BME280;27244;59.940;30.280;2023-06-19T11:12:53;101804.28;;;23.87;41.25
41513;BME280;27244;59.940;30.280;2023-06-19T11:15:28;101799.44;;;23.87;41.21
41513;BME280;27244;59.940;30.280;2023-06-19T11:17:55;101772.28;;;23.67;41.14
41513;BME280;27244;59.940;30.280;2023-06-19T11:20:23;101765.53;;;23.61;41.23
41513;BME280;27244;59.940;30.280;2023-06-19T11:22:54;101799.81;;;23.89;41.25
41513;BME280;27244;59.940;30.280;2023-06-19T11:25:24;101782.22;;;23.78;40.94
41513;BME280;27244;59.940;30.280;2023-06-19T11:27:52;101759.06;;;23.64;41.09
41513;BME280;27244;59.940;30.280;2023-06-19T11:30:30;101787.28;;;23.94;41.05
41513;BME280;27244;59.940;30.280;2023-06-19T11:32:57;101774.97;;;23.77;41.09
41513;BME280;27244;59.940;30.280;2023-06-19T11:35:25;101788.19;;;23.87;41.20
41513;BME280;27244;59.940;30.280;2023-06-19T11:38:00;101763.66;;;23.81;40.87
41513;BME280;27244;59.940;30.280;2023-06-19T11:40:28;101754.13;;;23.71;41.02
41513;BME280;27244;59.940;30.280;2023-06-19T11:42:56;101746.56;;;23.65;40.96
41513;BME280;27244;59.940;30.280;2023-06-19T11:45:23;101732.53;;;23.61;40.75
41513;BME280;27244;59.940;30.280;2023-06-19T11:47:52;101760.53;;;23.75;40.95
41513;BME280;27244;59.940;30.280;2023-06-19T11:50:19;101763.63;;;23.84;40.86
41513;BME280;27244;59.940;30.280;2023-06-19T11:52:47;101755.75;;;23.72;40.89
41513;BME280;27244;59.940;30.280;2023-06-19T11:55:14;101741.75;;;23.65;40.89
41513;BME280;27244;59.940;30.280;2023-06-19T11:57:44;101770.03;;;23.88;40.88
41513;BME280;27244;59.940;30.280;2023-06-19T12:00:15;101760.00;;;23.84;40.93
41513;BME280;27244;59.940;30.280;2023-06-19T12:02:44;101727.66;;;23.65;40.86
41513;BME280;27244;59.940;30.280;2023-06-19T12:05:12;101724.09;;;23.61;40.84
41513;BME280;27244;59.940;30.280;2023-06-19T12:07:40;101747.22;;;23.79;41.05
41513;BME280;27244;59.940;30.280;2023-06-19T12:10:07;101760.78;;;23.88;41.01
41513;BME280;27244;59.940;30.280;2023-06-19T12:12:37;101724.75;;;23.72;41.06
41513;BME280;27244;59.940;30.280;2023-06-19T12:15:08;101720.75;;;23.70;41.18
41513;BME280;27244;59.940;30.280;2023-06-19T12:17:35;101741.09;;;23.84;41.00
41513;BME280;27244;59.940;30.280;2023-06-19T12:20:03;101741.13;;;23.81;41.10
41513;BME280;27244;59.940;30.280;2023-06-19T12:22:32;101711.13;;;23.67;41.19
41513;BME280;27244;59.940;30.280;2023-06-19T12:24:59;101731.88;;;23.80;41.05
41513;BME280;27244;59.940;30.280;2023-06-19T12:27:26;101725.56;;;23.73;41.03
41513;BME280;27244;59.940;30.280;2023-06-19T12:29:54;101709.50;;;23.66;40.98
41513;BME280;27244;59.940;30.280;2023-06-19T12:32:22;101722.34;;;23.71;40.97
41513;BME280;27244;59.940;30.280;2023-06-19T12:34:50;101707.94;;;23.65;40.80
41513;BME280;27244;59.940;30.280;2023-06-19T12:37:20;101717.50;;;23.71;40.96
41513;BME280;27244;59.940;30.280;2023-06-19T12:39:47;101718.28;;;23.75;41.10
41513;BME280;27244;59.940;30.280;2023-06-19T12:42:14;101735.84;;;23.86;41.05
41513;BME280;27244;59.940;30.280;2023-06-19T12:44:42;101722.22;;;23.81;41.12
41513;BME280;27244;59.940;30.280;2023-06-19T12:47:10;101691.84;;;23.66;41.02